Portada
METAR-TAF:

METAR-TAF

Aeropuertos :

Apalachicola, Florida, Estados Unidos

latitud: 29-43-37N, longitud: 085-01-29W, altitud: 6 m

Observación

El informe se hizo hace 50 minutos, a las 04:53 UTC
Viento 9 kt del noreste
Temperatura 10°C
Humedad 82%
Presión 1028 hPa
Visibilidad: 16.1 km
Cielo cubierto a una altura de 5000 ft

METAR: KAAF 120453Z AUTO 05009KT 10SM OVC050 10/07 A3036 RMK AO2 RAE08 SLP280 P0000 T01000072 401720100

Hora: 00:43 (05:43 UTC)


TAF: falta

Observaciones y pronósticos meteorológicos de más de 4000 aeropuertos (mensajes METAR y TAF).

Los puntos amarillos y rojos representan las estaciones disponibles.

Ponga el ratón en el punto deseado para ver el nombre de la estación.

Haga clic para ver las observaciones y los pronósticos meteorológicos.

Para cambiar el mapa : haga clic en los botones verdes con una cruz de color negro para hacer un zoom, en el botón verde con un guión para alejar o en las flechas verdes para mapas adyacentes.


METAR-TAF: